sensor_id;sensor_type;location;lat;lon;timestamp;pressure;altitude;pressure_sealevel;temperature;humidity
16431;BME280;8325;49.284;7.238;2022-10-16T04:01:38;98620.03;;;14.23;100.00
16431;BME280;8325;49.284;7.238;2022-10-16T04:05:49;98606.28;;;14.27;100.00
16431;BME280;8325;49.284;7.238;2022-10-16T04:10:01;98607.88;;;14.22;100.00
16431;BME280;8325;49.284;7.238;2022-10-16T04:14:13;98603.63;;;14.21;100.00
16431;BME280;8325;49.284;7.238;2022-10-16T04:18:24;98601.41;;;14.18;100.00
16431;BME280;8325;49.284;7.238;2022-10-16T04:22:38;98605.03;;;14.17;100.00
16431;BME280;8325;49.284;7.238;2022-10-16T04:26:50;98613.91;;;14.16;100.00
16431;BME280;8325;49.284;7.238;2022-10-16T04:31:05;98620.41;;;14.13;100.00
16431;BME280;8325;49.284;7.238;2022-10-16T04:35:18;98615.13;;;14.13;100.00
16431;BME280;8325;49.284;7.238;2022-10-16T04:39:29;98635.31;;;14.13;100.00
16431;BME280;8325;49.284;7.238;2022-10-16T04:43:41;98639.59;;;14.14;100.00
16431;BME280;8325;49.284;7.238;2022-10-16T04:47:52;98637.75;;;14.14;100.00
16431;BME280;8325;49.284;7.238;2022-10-16T04:52:04;98628.44;;;14.12;100.00
16431;BME280;8325;49.284;7.238;2022-10-16T04:56:16;98622.41;;;14.11;100.00
16431;BME280;8325;49.284;7.238;2022-10-16T05:00:27;98632.69;;;14.13;100.00
16431;BME280;8325;49.284;7.238;2022-10-16T05:04:39;98643.00;;;14.14;100.00
16431;BME280;8325;49.284;7.238;2022-10-16T05:08:50;98652.91;;;14.12;100.00
16431;BME280;8325;49.284;7.238;2022-10-16T05:13:02;98612.91;;;14.10;100.00
16431;BME280;8325;49.284;7.238;2022-10-16T05:17:14;98624.22;;;14.11;100.00
16431;BME280;8325;49.284;7.238;2022-10-16T05:21:26;98636.53;;;14.10;100.00
16431;BME280;8325;49.284;7.238;2022-10-16T05:25:37;98636.53;;;14.10;100.00
16431;BME280;8325;49.284;7.238;2022-10-16T05:29:49;98635.69;;;14.10;100.00
16431;BME280;8325;49.284;7.238;2022-10-16T05:34:00;98642.59;;;14.11;100.00
16431;BME280;8325;49.284;7.238;2022-10-16T05:38:13;98637.34;;;14.11;100.00
16431;BME280;8325;49.284;7.238;2022-10-16T05:42:24;98639.16;;;14.10;100.00
16431;BME280;8325;49.284;7.238;2022-10-16T05:46:36;98634.91;;;14.09;100.00
16431;BME280;8325;49.284;7.238;2022-10-16T05:50:47;98651.66;;;14.08;100.00
16431;BME280;8325;49.284;7.238;2022-10-16T05:54:59;98651.84;;;14.07;100.00
16431;BME280;8325;49.284;7.238;2022-10-16T05:59:10;98666.63;;;14.08;100.00
16431;BME280;8325;49.284;7.238;2022-10-16T06:03:22;98668.06;;;14.10;100.00
16431;BME280;8325;49.284;7.238;2022-10-16T06:07:34;98661.97;;;14.10;100.00
16431;BME280;8325;49.284;7.238;2022-10-16T06:11:49;98667.03;;;14.11;100.00
16431;BME280;8325;49.284;7.238;2022-10-16T06:16:01;98650.47;;;14.11;100.00
16431;BME280;8325;49.284;7.238;2022-10-16T06:20:13;98656.97;;;14.15;100.00
16431;BME280;8325;49.284;7.238;2022-10-16T06:24:25;98658.00;;;14.20;100.00
16431;BME280;8325;49.284;7.238;2022-10-16T06:28:37;98671.38;;;14.25;100.00
16431;BME280;8325;49.284;7.238;2022-10-16T06:32:49;98685.91;;;14.28;100.00
16431;BME280;8325;49.284;7.238;2022-10-16T06:37:00;98680.28;;;14.31;100.00
16431;BME280;8325;49.284;7.238;2022-10-16T06:41:15;98672.38;;;14.31;100.00
16431;BME280;8325;49.284;7.238;2022-10-16T06:45:27;98670.22;;;14.35;100.00
16431;BME280;8325;49.284;7.238;2022-10-16T06:49:39;98677.50;;;14.39;100.00
16431;BME280;8325;49.284;7.238;2022-10-16T06:53:52;98688.00;;;14.39;100.00
16431;BME280;8325;49.284;7.238;2022-10-16T06:58:14;98699.72;;;14.43;100.00
16431;BME280;8325;49.284;7.238;2022-10-16T07:02:26;98699.34;;;14.46;100.00
16431;BME280;8325;49.284;7.238;2022-10-16T07:06:38;98703.06;;;14.59;100.00
16431;BME280;8325;49.284;7.238;2022-10-16T07:10:58;98716.06;;;14.67;100.00
16431;BME280;8325;49.284;7.238;2022-10-16T07:15:09;98726.38;;;14.68;100.00
16431;BME280;8325;49.284;7.238;2022-10-16T07:19:21;98732.88;;;14.72;100.00
16431;BME280;8325;49.284;7.238;2022-10-16T07:23:33;98761.81;;;14.79;100.00
16431;BME280;8325;49.284;7.238;2022-10-16T07:27:44;98780.47;;;14.91;100.00
16431;BME280;8325;49.284;7.238;2022-10-16T07:31:56;98777.88;;;14.98;100.00
16431;BME280;8325;49.284;7.238;2022-10-16T07:36:07;98784.34;;;15.02;100.00
16431;BME280;8325;49.284;7.238;2022-10-16T07:40:25;98786.81;;;15.10;100.00
16431;BME280;8325;49.284;7.238;2022-10-16T07:44:38;98789.88;;;15.20;100.00
16431;BME280;8325;49.284;7.238;2022-10-16T07:48:50;98806.94;;;15.37;100.00
16431;BME280;8325;49.284;7.238;2022-10-16T07:53:01;98813.47;;;15.55;100.00
16431;BME280;8325;49.284;7.238;2022-10-16T07:57:13;98813.53;;;15.68;100.00
16431;BME280;8325;49.284;7.238;2022-10-16T08:01:30;98811.13;;;15.80;100.00
16431;BME280;8325;49.284;7.238;2022-10-16T08:05:42;98821.66;;;15.86;100.00
16431;BME280;8325;49.284;7.238;2022-10-16T08:09:53;98822.47;;;15.87;100.00
16431;BME280;8325;49.284;7.238;2022-10-16T08:14:05;98833.81;;;15.87;100.00
16431;BME280;8325;49.284;7.238;2022-10-16T08:18:16;98834.22;;;15.84;100.00
16431;BME280;8325;49.284;7.238;2022-10-16T08:22:28;98831.78;;;15.83;100.00
16431;BME280;8325;49.284;7.238;2022-10-16T08:26:40;98833.81;;;15.87;100.00
16431;BME280;8325;49.284;7.238;2022-10-16T08:30:51;98833.00;;;15.94;100.00
16431;BME280;8325;49.284;7.238;2022-10-16T08:35:03;98840.09;;;16.00;100.00
16431;BME280;8325;49.284;7.238;2022-10-16T08:39:15;98848.00;;;16.06;100.00
16431;BME280;8325;49.284;7.238;2022-10-16T08:52:40;98853.09;;;16.48;100.00
16431;BME280;8325;49.284;7.238;2022-10-16T08:57:22;98865.81;;;16.64;100.00
16431;BME280;8325;49.284;7.238;2022-10-16T09:01:44;98871.72;;;16.73;100.00
16431;BME280;8325;49.284;7.238;2022-10-16T09:10:36;98869.81;;;17.07;100.00
16431;BME280;8325;49.284;7.238;2022-10-16T09:14:56;98875.09;;;17.13;100.00
16431;BME280;8325;49.284;7.238;2022-10-16T09:19:20;98880.81;;;17.03;100.00
16431;BME280;8325;49.284;7.238;2022-10-16T09:23:37;98867.78;;;17.09;100.00
16431;BME280;8325;49.284;7.238;2022-10-16T09:27:52;98867.13;;;17.20;100.00
16431;BME280;8325;49.284;7.238;2022-10-16T09:32:18;98878.09;;;17.17;100.00
16431;BME280;8325;49.284;7.238;2022-10-16T09:36:36;98872.38;;;17.26;100.00
16431;BME280;8325;49.284;7.238;2022-10-16T09:40:51;98883.75;;;17.34;100.00
16431;BME280;8325;49.284;7.238;2022-10-16T09:45:23;98891.72;;;17.14;100.00
16431;BME280;8325;49.284;7.238;2022-10-16T09:49:35;98880.34;;;17.13;100.00
16431;BME280;8325;49.284;7.238;2022-10-16T09:53:47;98883.56;;;17.29;100.00
16431;BME280;8325;49.284;7.238;2022-10-16T09:57:59;98892.03;;;17.44;100.00
16431;BME280;8325;49.284;7.238;2022-10-16T10:02:14;98889.94;;;17.59;100.00
16431;BME280;8325;49.284;7.238;2022-10-16T10:06:32;98882.72;;;17.73;100.00
16431;BME280;8325;49.284;7.238;2022-10-16T10:10:48;98880.91;;;17.74;100.00
16431;BME280;8325;49.284;7.238;2022-10-16T10:19:23;98901.38;;;17.85;99.59
16431;BME280;8325;49.284;7.238;2022-10-16T10:23:41;98909.31;;;17.85;100.00
16431;BME280;8325;49.284;7.238;2022-10-16T10:37:24;98907.41;;;18.30;97.53
16431;BME280;8325;49.284;7.238;2022-10-16T10:42:02;98907.84;;;18.27;94.63
16431;BME280;8325;49.284;7.238;2022-10-16T10:51:27;98924.94;;;18.25;96.21
16431;BME280;8325;49.284;7.238;2022-10-16T10:55:46;98940.78;;;18.25;96.51
16431;BME280;8325;49.284;7.238;2022-10-16T11:04:58;98919.25;;;18.21;97.76
16431;BME280;8325;49.284;7.238;2022-10-16T11:18:22;98911.94;;;18.23;98.58
16431;BME280;8325;49.284;7.238;2022-10-16T11:22:39;98916.00;;;18.19;98.89
16431;BME280;8325;49.284;7.238;2022-10-16T11:26:54;98912.41;;;18.13;99.06
16431;BME280;8325;49.284;7.238;2022-10-16T11:31:17;98920.50;;;18.18;98.95
16431;BME280;8325;49.284;7.238;2022-10-16T11:35:52;98913.34;;;18.26;98.66
16431;BME280;8325;49.284;7.238;2022-10-16T11:40:27;98912.50;;;18.32;97.68
16431;BME280;8325;49.284;7.238;2022-10-16T11:45:11;98899.69;;;18.29;96.68
16431;BME280;8325;49.284;7.238;2022-10-16T11:49:31;98912.03;;;18.35;96.61
16431;BME280;8325;49.284;7.238;2022-10-16T11:54:00;98905.00;;;18.29;97.13
16431;BME280;8325;49.284;7.238;2022-10-16T12:07:27;98896.81;;;18.30;96.97
16431;BME280;8325;49.284;7.238;2022-10-16T12:11:44;98898.00;;;18.34;97.63
16431;BME280;8325;49.284;7.238;2022-10-16T12:20:31;98893.81;;;18.27;96.72
16431;BME280;8325;49.284;7.238;2022-10-16T12:24:43;98896.06;;;18.23;97.85
16431;BME280;8325;49.284;7.238;2022-10-16T12:28:55;98877.34;;;18.25;98.24
16431;BME280;8325;49.284;7.238;2022-10-16T12:37:34;98878.50;;;18.35;96.04
16431;BME280;8325;49.284;7.238;2022-10-16T12:41:46;98877.38;;;18.43;97.21
16431;BME280;8325;49.284;7.238;2022-10-16T12:46:20;98873.50;;;18.46;97.09
16431;BME280;8325;49.284;7.238;2022-10-16T12:50:37;98891.41;;;18.44;95.66
16431;BME280;8325;49.284;7.238;2022-10-16T12:54:50;98881.94;;;18.36;95.13
16431;BME280;8325;49.284;7.238;2022-10-16T13:08:39;98897.31;;;18.21;95.09
16431;BME280;8325;49.284;7.238;2022-10-16T13:13:32;98883.06;;;18.22;95.10
16431;BME280;8325;49.284;7.238;2022-10-16T13:31:33;98890.56;;;18.50;94.54
16431;BME280;8325;49.284;7.238;2022-10-16T13:35:56;98884.63;;;18.54;94.26
16431;BME280;8325;49.284;7.238;2022-10-16T13:44:35;98889.63;;;18.62;91.97
16431;BME280;8325;49.284;7.238;2022-10-16T13:49:02;98893.03;;;18.70;92.57
16431;BME280;8325;49.284;7.238;2022-10-16T13:53:14;98890.13;;;18.78;92.48
16431;BME280;8325;49.284;7.238;2022-10-16T13:57:26;98896.00;;;18.80;91.73
16431;BME280;8325;49.284;7.238;2022-10-16T14:01:43;98894.16;;;18.80;90.82
16431;BME280;8325;49.284;7.238;2022-10-16T14:05:59;98890.00;;;18.91;91.44
16431;BME280;8325;49.284;7.238;2022-10-16T14:10:31;98888.97;;;18.92;90.17
16431;BME280;8325;49.284;7.238;2022-10-16T14:14:46;98884.91;;;18.90;90.13
16431;BME280;8325;49.284;7.238;2022-10-16T14:19:03;98883.50;;;18.87;88.53
16431;BME280;8325;49.284;7.238;2022-10-16T14:23:29;98885.00;;;18.83;88.72
16431;BME280;8325;49.284;7.238;2022-10-16T14:27:41;98880.81;;;18.94;88.64
16431;BME280;8325;49.284;7.238;2022-10-16T14:31:59;98869.72;;;19.03;88.02
16431;BME280;8325;49.284;7.238;2022-10-16T14:36:11;98879.09;;;19.18;87.68
16431;BME280;8325;49.284;7.238;2022-10-16T14:40:26;98867.78;;;19.29;86.37
16431;BME280;8325;49.284;7.238;2022-10-16T14:44:39;98879.97;;;19.30;87.64
16431;BME280;8325;49.284;7.238;2022-10-16T14:48:56;98889.13;;;19.16;88.38
16431;BME280;8325;49.284;7.238;2022-10-16T14:53:11;98886.03;;;19.00;88.01
16431;BME280;8325;49.284;7.238;2022-10-16T14:57:26;98891.44;;;18.87;88.45
16431;BME280;8325;49.284;7.238;2022-10-16T15:01:43;98894.59;;;18.77;89.43
16431;BME280;8325;49.284;7.238;2022-10-16T15:05:54;98893.25;;;18.68;89.17
16431;BME280;8325;49.284;7.238;2022-10-16T15:10:06;98889.06;;;18.60;89.86
16431;BME280;8325;49.284;7.238;2022-10-16T15:14:18;98900.06;;;18.57;89.56
16431;BME280;8325;49.284;7.238;2022-10-16T15:18:29;98906.09;;;18.64;89.20
16431;BME280;8325;49.284;7.238;2022-10-16T15:22:41;98899.72;;;18.72;89.10
16431;BME280;8325;49.284;7.238;2022-10-16T15:26:53;98883.81;;;18.79;88.25
16431;BME280;8325;49.284;7.238;2022-10-16T15:31:04;98884.38;;;18.81;87.70
16431;BME280;8325;49.284;7.238;2022-10-16T15:35:16;98875.88;;;18.79;88.06
16431;BME280;8325;49.284;7.238;2022-10-16T15:39:28;98877.94;;;18.77;87.45
16431;BME280;8325;49.284;7.238;2022-10-16T15:43:39;98869.38;;;18.75;86.91
16431;BME280;8325;49.284;7.238;2022-10-16T15:47:51;98878.03;;;18.63;87.73
16431;BME280;8325;49.284;7.238;2022-10-16T15:52:03;98870.09;;;18.63;88.24
16431;BME280;8325;49.284;7.238;2022-10-16T15:56:14;98880.88;;;18.62;88.52
16431;BME280;8325;49.284;7.238;2022-10-16T16:00:26;98877.88;;;18.58;88.63
16431;BME280;8325;49.284;7.238;2022-10-16T16:04:38;98889.31;;;18.52;90.19
16431;BME280;8325;49.284;7.238;2022-10-16T16:08:55;98883.97;;;18.34;93.14
16431;BME280;8325;49.284;7.238;2022-10-16T16:13:06;98886.56;;;18.15;94.10
16431;BME280;8325;49.284;7.238;2022-10-16T16:17:18;98878.94;;;18.01;94.60
16431;BME280;8325;49.284;7.238;2022-10-16T16:21:29;98878.66;;;17.84;95.91
16431;BME280;8325;49.284;7.238;2022-10-16T16:25:41;98874.25;;;17.64;97.66
16431;BME280;8325;49.284;7.238;2022-10-16T16:29:52;98879.97;;;17.55;97.77
16431;BME280;8325;49.284;7.238;2022-10-16T16:34:04;98880.06;;;17.41;98.07
16431;BME280;8325;49.284;7.238;2022-10-16T16:38:16;98883.97;;;17.25;99.44
16431;BME280;8325;49.284;7.238;2022-10-16T16:42:27;98888.88;;;17.09;100.00
16431;BME280;8325;49.284;7.238;2022-10-16T16:46:40;98898.69;;;16.95;100.00
16431;BME280;8325;49.284;7.238;2022-10-16T16:50:51;98899.13;;;16.78;100.00
16431;BME280;8325;49.284;7.238;2022-10-16T16:55:03;98900.72;;;16.66;100.00
16431;BME280;8325;49.284;7.238;2022-10-16T16:59:20;98919.78;;;16.55;100.00
16431;BME280;8325;49.284;7.238;2022-10-16T17:03:34;98920.78;;;16.41;100.00
16431;BME280;8325;49.284;7.238;2022-10-16T17:07:46;98932.78;;;16.37;100.00
16431;BME280;8325;49.284;7.238;2022-10-16T17:11:57;98941.66;;;16.22;100.00
16431;BME280;8325;49.284;7.238;2022-10-16T17:16:09;98944.69;;;16.13;100.00
16431;BME280;8325;49.284;7.238;2022-10-16T17:20:21;98953.00;;;16.03;100.00
16431;BME280;8325;49.284;7.238;2022-10-16T17:24:32;98959.06;;;15.97;100.00
16431;BME280;8325;49.284;7.238;2022-10-16T17:28:44;98968.38;;;15.93;100.00
16431;BME280;8325;49.284;7.238;2022-10-16T17:32:56;98965.09;;;15.84;100.00
16431;BME280;8325;49.284;7.238;2022-10-16T17:37:07;98972.38;;;15.82;100.00
16431;BME280;8325;49.284;7.238;2022-10-16T17:41:21;98972.34;;;15.75;100.00
16431;BME280;8325;49.284;7.238;2022-10-16T17:45:36;98982.88;;;15.69;100.00
16431;BME280;8325;49.284;7.238;2022-10-16T17:49:49;98972.28;;;15.62;100.00
16431;BME280;8325;49.284;7.238;2022-10-16T17:54:01;98980.31;;;15.47;100.00
16431;BME280;8325;49.284;7.238;2022-10-16T17:58:13;98976.22;;;15.45;100.00
16431;BME280;8325;49.284;7.238;2022-10-16T18:02:25;98990.81;;;15.40;100.00
16431;BME280;8325;49.284;7.238;2022-10-16T18:06:37;98992.22;;;15.36;100.00
16431;BME280;8325;49.284;7.238;2022-10-16T18:10:50;98997.22;;;15.31;100.00
16431;BME280;8325;49.284;7.238;2022-10-16T18:15:01;98996.78;;;15.21;100.00
16431;BME280;8325;49.284;7.238;2022-10-16T18:19:13;99010.69;;;15.15;100.00
16431;BME280;8325;49.284;7.238;2022-10-16T18:23:25;99007.81;;;15.10;100.00
16431;BME280;8325;49.284;7.238;2022-10-16T18:27:37;99006.09;;;14.95;100.00
16431;BME280;8325;49.284;7.238;2022-10-16T18:31:48;99005.09;;;14.96;100.00
16431;BME280;8325;49.284;7.238;2022-10-16T18:36:02;98996.97;;;14.91;100.00
16431;BME280;8325;49.284;7.238;2022-10-16T18:40:14;99010.88;;;14.85;100.00
16431;BME280;8325;49.284;7.238;2022-10-16T18:44:26;99017.13;;;14.84;100.00
16431;BME280;8325;49.284;7.238;2022-10-16T18:48:39;99021.72;;;14.76;100.00
16431;BME280;8325;49.284;7.238;2022-10-16T18:52:50;99018.28;;;14.75;100.00
16431;BME280;8325;49.284;7.238;2022-10-16T18:57:02;99027.91;;;14.68;100.00
16431;BME280;8325;49.284;7.238;2022-10-16T19:01:17;99023.81;;;14.65;100.00
16431;BME280;8325;49.284;7.238;2022-10-16T19:05:32;99023.78;;;14.59;100.00
16431;BME280;8325;49.284;7.238;2022-10-16T19:09:44;99033.69;;;14.57;100.00
16431;BME280;8325;49.284;7.238;2022-10-16T19:13:56;99036.84;;;14.52;100.00
16431;BME280;8325;49.284;7.238;2022-10-16T19:18:08;99048.91;;;14.46;100.00
16431;BME280;8325;49.284;7.238;2022-10-16T19:22:19;99050.72;;;14.46;100.00
16431;BME280;8325;49.284;7.238;2022-10-16T19:27:02;99054.91;;;14.40;100.00
16431;BME280;8325;49.284;7.238;2022-10-16T19:31:19;99062.28;;;14.30;100.00
16431;BME280;8325;49.284;7.238;2022-10-16T19:35:32;99059.75;;;14.22;100.00
16431;BME280;8325;49.284;7.238;2022-10-16T19:39:43;99059.38;;;14.25;100.00
16431;BME280;8325;49.284;7.238;2022-10-16T19:43:59;99059.31;;;14.18;100.00
16431;BME280;8325;49.284;7.238;2022-10-16T19:48:11;99058.59;;;14.10;100.00
16431;BME280;8325;49.284;7.238;2022-10-16T19:52:22;99059.97;;;14.05;100.00
16431;BME280;8325;49.284;7.238;2022-10-16T19:56:34;99073.19;;;13.97;100.00
16431;BME280;8325;49.284;7.238;2022-10-16T20:00:46;99077.19;;;13.93;100.00
16431;BME280;8325;49.284;7.238;2022-10-16T20:04:58;99072.50;;;13.89;100.00
16431;BME280;8325;49.284;7.238;2022-10-16T20:09:10;99073.41;;;13.81;100.00
16431;BME280;8325;49.284;7.238;2022-10-16T20:13:22;99079.81;;;13.78;100.00
16431;BME280;8325;49.284;7.238;2022-10-16T20:17:33;99086.72;;;13.79;100.00
16431;BME280;8325;49.284;7.238;2022-10-16T20:21:45;99091.50;;;13.76;100.00
16431;BME280;8325;49.284;7.238;2022-10-16T20:25:59;99091.50;;;13.76;100.00
16431;BME280;8325;49.284;7.238;2022-10-16T20:30:14;99092.50;;;13.75;100.00
16431;BME280;8325;49.284;7.238;2022-10-16T20:34:26;99099.56;;;13.74;100.00
16431;BME280;8325;49.284;7.238;2022-10-16T20:38:38;99098.09;;;13.72;100.00
16431;BME280;8325;49.284;7.238;2022-10-16T20:42:50;99098.75;;;13.74;100.00
16431;BME280;8325;49.284;7.238;2022-10-16T20:47:01;99111.06;;;13.73;100.00
16431;BME280;8325;49.284;7.238;2022-10-16T20:51:18;99115.59;;;13.65;100.00
16431;BME280;8325;49.284;7.238;2022-10-16T20:55:29;99116.41;;;13.65;100.00
16431;BME280;8325;49.284;7.238;2022-10-16T20:59:41;99114.94;;;13.63;100.00
16431;BME280;8325;49.284;7.238;2022-10-16T21:03:55;99113.69;;;13.58;100.00
16431;BME280;8325;49.284;7.238;2022-10-16T21:08:08;99113.03;;;13.56;100.00
16431;BME280;8325;49.284;7.238;2022-10-16T21:12:19;99113.38;;;13.53;100.00
16431;BME280;8325;49.284;7.238;2022-10-16T21:16:31;99117.72;;;13.46;100.00
16431;BME280;8325;49.284;7.238;2022-10-16T21:20:44;99108.19;;;13.30;100.00
16431;BME280;8325;49.284;7.238;2022-10-16T21:24:56;99110.56;;;13.40;100.00
16431;BME280;8325;49.284;7.238;2022-10-16T21:29:08;99108.31;;;13.37;100.00
